Kiester, Minnesota
Current Conditions -  °F | °C
As of 4:15 PM on Friday 24 Oct 2014 (Local Time) from KAEL Reporting Station
Clear Clear  
Wind Chill: 66°   Ceiling: Unl
Heat Index: 66°   Visibility: 10mi
Dew Point: 55°   Wind: 8mph
Humidity: 68%   Direction: 230°SW
Pressure: 29.85"   Gusts: NA
Location:  43.54°N, 93.71°W
Report Text: KAEL 242115Z AUTO 23007KT 10SM CLR 19/13 A2985 RMK AO2
Loading
Personal Weather Stations






























Interactive Weather Map New forecast layout! Learn more

10-Day Weather Forecast

Advertisements
Track Severe Weather on mobile